createdAt,value
2018-09-10T00:00:58.251Z,99.90
2018-09-10T00:03:26.043Z,99.90
2018-09-10T00:05:53.723Z,99.90
2018-09-10T00:10:48.721Z,99.90
2018-09-10T00:13:16.532Z,99.90
2018-09-10T00:15:44.177Z,99.90
2018-09-10T00:18:11.942Z,99.90
2018-09-10T00:20:45.256Z,99.90
2018-09-10T00:23:12.948Z,99.90
2018-09-10T00:25:40.627Z,99.90
2018-09-10T00:28:08.328Z,99.90
2018-09-10T00:30:39.123Z,99.90
2018-09-10T00:33:06.908Z,99.90
2018-09-10T00:35:34.588Z,99.90
2018-09-10T00:38:02.269Z,99.90
2018-09-10T00:40:30.951Z,99.90
2018-09-10T00:42:58.644Z,99.90
2018-09-10T00:45:26.323Z,99.90
2018-09-10T00:47:54.009Z,99.90
2018-09-10T00:50:21.715Z,99.90
2018-09-10T00:52:49.361Z,99.90
2018-09-10T00:55:17.024Z,99.90
2018-09-10T00:57:44.712Z,99.90
2018-09-10T01:00:17.647Z,99.90
2018-09-10T01:05:12.668Z,99.90
2018-09-10T01:07:40.352Z,99.90
2018-09-10T01:10:38.915Z,99.90
2018-09-10T01:13:06.680Z,99.90
2018-09-10T01:15:34.405Z,99.90
2018-09-10T01:18:02.116Z,99.90
2018-09-10T01:20:34.007Z,99.90
2018-09-10T01:23:01.744Z,99.90
2018-09-10T01:25:29.472Z,99.90
2018-09-10T01:27:57.231Z,99.90
2018-09-10T01:30:26.055Z,99.90
2018-09-10T01:32:53.803Z,99.90
2018-09-10T01:35:21.551Z,99.90
2018-09-10T01:37:49.234Z,99.90
2018-09-10T01:40:29.948Z,99.90
2018-09-10T01:42:57.620Z,99.90
2018-09-10T01:45:25.344Z,99.90
2018-09-10T01:47:53.073Z,99.90
2018-09-10T01:50:31.643Z,99.90
2018-09-10T01:52:59.309Z,99.90
2018-09-10T01:55:27.008Z,99.90
2018-09-10T01:57:54.680Z,99.90
2018-09-10T02:00:24.399Z,99.90
2018-09-10T02:02:52.091Z,99.90
2018-09-10T02:05:19.756Z,99.90
2018-09-10T02:07:47.448Z,99.90
2018-09-10T02:10:17.351Z,99.90
2018-09-10T02:15:12.391Z,99.90
2018-09-10T02:17:40.064Z,99.90
2018-09-10T02:20:17.803Z,99.90
2018-09-10T02:22:45.450Z,99.90
2018-09-10T02:25:13.201Z,99.90
2018-09-10T02:27:40.898Z,99.90
2018-09-10T02:30:09.616Z,99.90
2018-09-10T02:32:37.355Z,99.90
2018-09-10T02:35:05.132Z,99.90
2018-09-10T02:37:32.833Z,99.90
2018-09-10T02:40:04.554Z,99.90
2018-09-10T02:42:32.224Z,99.90
2018-09-10T02:44:59.903Z,99.90
2018-09-10T02:47:27.624Z,99.90
2018-09-10T02:49:56.350Z,99.90
2018-09-10T02:52:24.026Z,99.90
2018-09-10T02:54:51.674Z,99.90
2018-09-10T02:57:19.452Z,99.90
2018-09-10T02:59:49.164Z,99.90
2018-09-10T03:02:16.822Z,99.90
2018-09-10T03:04:45.309Z,99.90
2018-09-10T03:07:13.171Z,99.90
2018-09-10T03:09:40.884Z,99.90
2018-09-10T03:12:08.598Z,99.90
2018-09-10T03:14:37.145Z,99.90
2018-09-10T03:17:04.856Z,99.90
2018-09-10T03:19:34.652Z,99.90
2018-09-10T03:22:02.349Z,99.90
2018-09-10T03:24:30.083Z,99.90
2018-09-10T03:26:57.731Z,99.90
2018-09-10T03:29:25.549Z,99.90
2018-09-10T03:31:59.805Z,99.90
2018-09-10T03:34:27.493Z,99.90
2018-09-10T03:36:55.171Z,99.90
2018-09-10T03:39:25.044Z,99.90
2018-09-10T03:41:52.632Z,99.90
2018-09-10T03:44:20.256Z,99.90
2018-09-10T03:46:47.921Z,99.90
2018-09-10T03:49:21.431Z,99.90
2018-09-10T03:51:49.128Z,99.90
2018-09-10T03:54:16.899Z,99.90
2018-09-10T03:59:19.869Z,99.90
2018-09-10T04:04:15.024Z,99.90
2018-09-10T04:06:42.732Z,99.90
2018-09-10T04:09:12.454Z,99.90
2018-09-10T04:11:40.097Z,99.90
2018-09-10T04:14:07.809Z,99.90
2018-09-10T04:16:35.426Z,99.90
2018-09-10T04:19:04.148Z,99.90
2018-09-10T04:21:31.880Z,99.90
2018-09-10T04:23:59.555Z,99.90
2018-09-10T04:26:27.209Z,99.90
2018-09-10T04:29:02.420Z,99.90
2018-09-10T04:31:30.072Z,99.90
2018-09-10T04:33:57.724Z,99.90
2018-09-10T04:36:25.420Z,99.90
2018-09-10T04:39:01.267Z,99.90
2018-09-10T04:41:33.337Z,99.90
2018-09-10T04:44:01.038Z,99.90
2018-09-10T04:46:28.775Z,99.90
2018-09-10T04:48:56.494Z,99.90
2018-09-10T04:51:24.233Z,99.90
2018-09-10T04:53:51.991Z,99.90
2018-09-10T04:56:19.742Z,99.90
2018-09-10T04:58:47.469Z,99.90
2018-09-10T05:01:15.186Z,99.90
2018-09-10T05:03:42.904Z,99.90
2018-09-10T05:06:10.608Z,99.90
2018-09-10T05:08:41.946Z,99.90
2018-09-10T05:11:09.660Z,99.90
2018-09-10T05:13:37.387Z,99.90
2018-09-10T05:16:05.123Z,99.90
2018-09-10T05:18:45.821Z,99.90
2018-09-10T05:21:13.456Z,99.90
2018-09-10T05:23:41.167Z,99.90
2018-09-10T05:26:08.795Z,99.90
2018-09-10T05:28:38.579Z,99.90
2018-09-10T05:31:06.244Z,99.90
2018-09-10T05:33:33.925Z,99.90
2018-09-10T05:36:01.665Z,99.90
2018-09-10T05:38:29.324Z,99.90
2018-09-10T05:40:56.916Z,99.90
2018-09-10T05:43:24.417Z,99.90
2018-09-10T05:45:52.729Z,99.90
2018-09-10T05:48:20.269Z,99.90
2018-09-10T05:50:47.779Z,99.90
2018-09-10T05:53:15.322Z,99.90
2018-09-10T05:55:42.832Z,99.90
2018-09-10T05:58:10.427Z,99.90
2018-09-10T06:00:39.055Z,99.90
2018-09-10T06:03:06.604Z,99.90
2018-09-10T06:05:34.111Z,99.90
2018-09-10T06:08:01.608Z,99.90
2018-09-10T06:14:00.351Z,99.90
2018-09-10T06:16:27.950Z,99.90
2018-09-10T06:18:55.419Z,99.90
2018-09-10T06:21:22.952Z,99.90
2018-09-10T06:23:50.480Z,99.90
2018-09-10T06:26:18.030Z,99.90
2018-09-10T06:33:55.122Z,99.90
2018-09-10T06:36:22.731Z,99.90
2018-09-10T06:38:58.259Z,99.90
2018-09-10T06:41:25.811Z,99.90
2018-09-10T06:43:53.359Z,99.90
2018-09-10T06:46:20.887Z,99.90
2018-09-10T06:48:53.395Z,99.90
2018-09-10T06:51:20.904Z,99.90
2018-09-10T06:53:48.424Z,99.90
2018-09-10T06:56:15.927Z,99.90
2018-09-10T06:58:48.568Z,99.90
2018-09-10T07:01:16.297Z,99.90
2018-09-10T07:03:44.096Z,99.90
2018-09-10T07:06:11.859Z,99.90
2018-09-10T07:08:41.667Z,99.90
2018-09-10T07:11:09.381Z,99.90
2018-09-10T07:13:37.069Z,99.90
2018-09-10T07:16:04.779Z,99.90
2018-09-10T07:18:34.603Z,99.90
2018-09-10T07:21:02.299Z,99.90
2018-09-10T07:23:30.024Z,99.90
2018-09-10T07:25:57.756Z,99.90
2018-09-10T07:28:37.544Z,99.90
2018-09-10T07:31:05.232Z,99.90
2018-09-10T07:33:32.974Z,99.90
2018-09-10T07:36:00.692Z,99.90
2018-09-10T07:38:33.420Z,99.90
2018-09-10T07:41:01.211Z,99.90
2018-09-10T07:43:28.944Z,99.90
2018-09-10T07:45:56.584Z,99.90
2018-09-10T07:48:39.291Z,99.90
2018-09-10T07:51:06.799Z,99.90
2018-09-10T07:53:34.312Z,99.90
2018-09-10T07:56:01.838Z,99.90
2018-09-10T07:58:29.426Z,99.90
2018-09-10T08:00:56.972Z,99.90
2018-09-10T08:03:24.504Z,99.90
2018-09-10T08:05:52.093Z,99.90
2018-09-10T08:08:51.346Z,99.90
2018-09-10T08:13:46.171Z,99.90
2018-09-10T08:16:13.735Z,99.90
2018-09-10T08:18:44.616Z,99.90
2018-09-10T08:21:12.127Z,99.90
2018-09-10T08:23:39.799Z,99.90
2018-09-10T08:29:11.760Z,99.90
2018-09-10T08:31:39.531Z,99.90
2018-09-10T08:34:07.415Z,99.90
2018-09-10T08:39:07.627Z,99.90
2018-09-10T08:41:35.421Z,99.90
2018-09-10T08:46:30.620Z,99.90
2018-09-10T08:49:03.407Z,99.90
2018-09-10T08:51:31.112Z,99.90
2018-09-10T08:53:58.930Z,99.90
2018-09-10T08:56:26.713Z,99.90
2018-09-10T08:59:06.800Z,99.90
2018-09-10T09:01:34.507Z,99.90
2018-09-10T09:04:02.245Z,99.90
2018-09-10T09:09:09.013Z,99.90
2018-09-10T09:11:36.848Z,99.90
2018-09-10T09:14:04.564Z,99.90
2018-09-10T09:16:32.283Z,99.90
2018-09-10T09:18:59.967Z,99.90
2018-09-10T09:21:28.247Z,99.90
2018-09-10T09:23:56.410Z,99.90
2018-09-10T09:26:24.132Z,99.90
2018-09-10T09:29:06.327Z,99.90
2018-09-10T09:34:01.627Z,99.90
2018-09-10T09:36:34.727Z,99.90
2018-09-10T09:39:26.563Z,99.90
2018-09-10T09:41:59.419Z,99.90
2018-09-10T09:44:32.365Z,99.90
2018-09-10T09:46:59.939Z,99.90
2018-09-10T09:49:39.051Z,99.90
2018-09-10T09:52:06.571Z,99.90
2018-09-10T09:54:34.068Z,99.90
2018-09-10T09:57:01.631Z,99.90
2018-09-10T09:59:33.163Z,99.90
2018-09-10T10:02:06.006Z,97.90
2018-09-10T10:04:33.588Z,97.10
2018-09-10T10:07:01.084Z,96.30
2018-09-10T10:12:58.011Z,93.40
2018-09-10T10:15:25.598Z,91.20
2018-09-10T10:17:53.139Z,91.60
2018-09-10T10:20:20.765Z,89.50
2018-09-10T10:22:48.291Z,88.60
2018-09-10T10:25:15.817Z,86.30
2018-09-10T10:30:55.963Z,87.50
2018-09-10T10:33:23.523Z,81.70
2018-09-10T10:35:51.094Z,84.10
2018-09-10T10:38:18.860Z,82.40
2018-09-10T10:40:48.273Z,94.60
2018-09-10T10:43:18.948Z,93.60
2018-09-10T10:48:30.842Z,78.30
2018-09-10T10:50:58.487Z,73.80
2018-09-10T10:53:36.577Z,72.30
2018-09-10T10:58:44.903Z,67.60
2018-09-10T11:01:12.496Z,69.40
2018-09-10T11:06:07.392Z,67.60
2018-09-10T11:08:36.152Z,67.50
2018-09-10T11:11:03.856Z,66.30
2018-09-10T11:13:31.504Z,62.60
2018-09-10T11:15:59.252Z,60.70
2018-09-10T11:18:27.024Z,57.70
2018-09-10T11:20:59.388Z,59.20
2018-09-10T11:23:27.768Z,57.70
2018-09-10T11:25:56.366Z,89.20
2018-09-10T11:30:56.644Z,56.00
2018-09-10T11:33:24.336Z,56.20
2018-09-10T11:35:55.295Z,56.90
2018-09-10T11:38:23.072Z,56.40
2018-09-10T11:40:50.776Z,57.70
2018-09-10T11:43:18.552Z,70.60
2018-09-10T11:45:46.368Z,84.10
2018-09-10T11:48:24.650Z,54.80
2018-09-10T11:50:52.340Z,54.00
2018-09-10T11:53:20.060Z,54.30
2018-09-10T11:55:47.880Z,53.50
2018-09-10T12:00:43.121Z,48.50
2018-09-10T12:03:14.808Z,48.90
2018-09-10T12:05:57.694Z,53.60
2018-09-10T12:08:39.473Z,58.00
2018-09-10T12:14:23.016Z,49.10
2018-09-10T12:16:53.612Z,50.70
2018-09-10T12:19:23.317Z,50.10
2018-09-10T12:21:51.112Z,47.80
2018-09-10T12:24:20.701Z,47.30
2018-09-10T12:26:48.490Z,45.70
2018-09-10T12:29:20.423Z,46.60
2018-09-10T12:31:48.333Z,46.30
2018-09-10T12:34:28.215Z,46.70
2018-09-10T12:39:24.247Z,48.10
2018-09-10T12:41:51.944Z,50.90
2018-09-10T12:44:24.432Z,50.30
2018-09-10T12:55:43.356Z,69.50
2018-09-10T12:58:21.218Z,44.50
2018-09-10T13:00:58.981Z,43.90
2018-09-10T13:03:27.144Z,46.40
2018-09-10T13:05:54.684Z,46.90
2018-09-10T13:08:40.173Z,46.40
2018-09-10T13:11:07.744Z,46.10
2018-09-10T13:13:35.335Z,45.10
2018-09-10T13:16:02.864Z,44.70
2018-09-10T13:19:04.693Z,44.30
2018-09-10T13:23:59.475Z,51.20
2018-09-10T13:26:26.999Z,47.50
2018-09-10T13:29:19.236Z,47.20
2018-09-10T13:31:46.778Z,44.70
2018-09-10T13:34:14.280Z,43.90
2018-09-10T13:36:42.871Z,45.00
2018-09-10T13:39:12.443Z,45.50
2018-09-10T13:41:39.984Z,43.80
2018-09-10T13:44:07.598Z,44.40
2018-09-10T13:46:35.139Z,44.60
2018-09-10T13:49:02.771Z,44.90
2018-09-10T13:51:30.380Z,46.40
2018-09-10T13:53:58.106Z,47.10
2018-09-10T13:56:25.852Z,46.90
2018-09-10T13:58:55.154Z,45.80
2018-09-10T14:01:22.828Z,46.20
2018-09-10T14:06:17.599Z,47.00
2018-09-10T14:08:50.882Z,74.40
2018-09-10T14:11:18.407Z,49.40
2018-09-10T14:13:46.019Z,49.40
2018-09-10T14:16:13.692Z,48.20
2018-09-10T14:18:42.388Z,48.90
2018-09-10T14:21:10.123Z,48.60
2018-09-10T14:23:37.832Z,48.40
2018-09-10T14:26:05.543Z,48.30
2018-09-10T14:28:40.652Z,47.60
2018-09-10T14:31:08.317Z,48.10
2018-09-10T14:33:36.085Z,48.70
2018-09-10T14:36:03.776Z,49.80
2018-09-10T14:38:49.145Z,50.00
2018-09-10T14:43:44.265Z,51.30
2018-09-10T14:46:12.318Z,51.40
2018-09-10T14:48:58.856Z,52.00
2018-09-10T14:51:26.584Z,52.60
2018-09-10T14:53:54.384Z,53.00
2018-09-10T14:56:22.080Z,53.80
2018-09-10T14:58:50.010Z,53.80
2018-09-10T15:01:17.660Z,54.50
2018-09-10T15:03:45.456Z,55.50
2018-09-10T15:06:13.032Z,56.00
2018-09-10T15:08:50.924Z,55.10
2018-09-10T15:11:18.450Z,55.20
2018-09-10T15:13:45.955Z,56.50
2018-09-10T15:16:13.603Z,56.00
2018-09-10T15:18:42.202Z,56.30
2018-09-10T15:21:09.707Z,57.00
2018-09-10T15:23:37.243Z,56.90
2018-09-10T15:26:04.838Z,56.00
2018-09-10T15:28:33.443Z,56.40
2018-09-10T15:31:01.085Z,56.70
2018-09-10T15:33:28.595Z,55.90
2018-09-10T15:35:56.108Z,56.40
2018-09-10T15:38:27.644Z,56.90
2018-09-10T15:40:55.143Z,57.10
2018-09-10T15:43:22.735Z,57.90
2018-09-10T15:45:50.277Z,57.70
2018-09-10T15:48:17.888Z,57.30
2018-09-10T15:50:45.642Z,58.20
2018-09-10T15:53:13.200Z,57.50
2018-09-10T15:55:40.795Z,58.70
2018-09-10T15:58:25.775Z,59.10
2018-09-10T16:00:53.347Z,59.60
2018-09-10T16:03:21.119Z,59.80
2018-09-10T16:05:48.723Z,59.50
2018-09-10T16:08:16.313Z,60.00
2018-09-10T16:10:43.849Z,59.50
2018-09-10T16:13:11.379Z,59.80
2018-09-10T16:15:38.948Z,60.50
2018-09-10T16:18:09.716Z,60.80
2018-09-10T16:20:37.400Z,61.20
2018-09-10T16:23:05.116Z,60.90
2018-09-10T16:25:32.839Z,61.50
2018-09-10T16:28:22.631Z,61.80
2018-09-10T16:30:50.399Z,62.60
2018-09-10T16:33:18.044Z,64.20
2018-09-10T16:35:45.732Z,64.50
2018-09-10T16:38:26.796Z,64.70
2018-09-10T16:40:55.187Z,65.10
2018-09-10T16:43:22.991Z,65.90
2018-09-10T16:45:50.667Z,66.10
2018-09-10T16:48:37.510Z,66.90
2018-09-10T16:51:05.120Z,67.60
2018-09-10T16:53:32.766Z,68.90
2018-09-10T16:56:00.500Z,69.60
2018-09-10T16:58:28.375Z,71.30
2018-09-10T17:00:56.031Z,70.90
2018-09-10T17:03:25.152Z,69.70
2018-09-10T17:05:52.825Z,68.40
2018-09-10T17:08:27.601Z,70.70
2018-09-10T17:10:55.131Z,73.50
2018-09-10T17:13:22.670Z,77.10
2018-09-10T17:15:50.223Z,78.20
2018-09-10T17:23:13.379Z,88.40
2018-09-10T17:25:40.899Z,90.00
2018-09-10T17:28:09.995Z,88.40
2018-09-10T17:30:37.535Z,97.00
2018-09-10T17:33:05.998Z,90.00
2018-09-10T17:35:33.515Z,92.00
2018-09-10T17:38:01.016Z,90.70
2018-09-10T17:40:29.668Z,91.20
2018-09-10T17:42:57.304Z,94.70
2018-09-10T17:45:24.947Z,97.90
2018-09-10T17:47:52.620Z,99.90
2018-09-10T17:50:20.355Z,98.30
2018-09-10T17:52:47.980Z,99.90
2018-09-10T17:55:16.188Z,99.90
2018-09-10T17:57:43.877Z,99.90
2018-09-10T18:00:19.867Z,99.90
2018-09-10T18:05:14.936Z,99.90
2018-09-10T18:07:42.668Z,99.90
2018-09-10T18:10:11.491Z,99.90
2018-09-10T18:12:39.205Z,99.90
2018-09-10T18:15:07.015Z,99.90
2018-09-10T18:17:34.740Z,99.90
2018-09-10T18:20:03.561Z,99.90
2018-09-10T18:22:31.247Z,99.90
2018-09-10T18:24:59.055Z,99.90
2018-09-10T18:27:26.748Z,99.90
2018-09-10T18:29:55.468Z,99.90
2018-09-10T18:32:23.240Z,99.90
2018-09-10T18:34:50.988Z,99.90
2018-09-10T18:39:50.119Z,99.90
2018-09-10T18:42:17.821Z,99.90
2018-09-10T18:44:45.544Z,99.90
2018-09-10T18:47:13.312Z,99.90
2018-09-10T18:49:41.148Z,99.90
2018-09-10T18:52:08.792Z,99.90
2018-09-10T18:54:36.527Z,99.90
2018-09-10T18:57:04.225Z,99.90
2018-09-10T18:59:34.041Z,99.90
2018-09-10T19:02:01.736Z,99.90
2018-09-10T19:04:29.429Z,99.90
2018-09-10T19:06:57.197Z,99.90
2018-09-10T19:09:24.852Z,99.90
2018-09-10T19:11:52.408Z,99.90
2018-09-10T19:14:19.915Z,99.90
2018-09-10T19:16:47.483Z,99.90
2018-09-10T19:21:44.332Z,99.90
2018-09-10T19:24:11.840Z,99.90
2018-09-10T19:26:39.428Z,99.90
2018-09-10T19:29:21.968Z,99.90
2018-09-10T19:31:49.547Z,99.90
2018-09-10T19:34:17.083Z,99.90
2018-09-10T19:36:44.648Z,99.90
2018-09-10T19:39:23.567Z,99.90
2018-09-10T19:41:51.152Z,99.90
2018-09-10T19:49:22.587Z,99.90
2018-09-10T19:51:50.295Z,99.90
2018-09-10T19:56:50.821Z,99.90
2018-09-10T19:59:21.875Z,99.90
2018-09-10T20:01:49.419Z,99.90
2018-09-10T20:04:16.945Z,99.90
2018-09-10T20:06:44.485Z,99.90
2018-09-10T20:09:12.115Z,99.90
2018-09-10T20:11:39.660Z,99.90
2018-09-10T20:14:07.303Z,99.90
2018-09-10T20:16:34.809Z,99.90
2018-09-10T20:19:10.196Z,99.90
2018-09-10T20:21:37.892Z,99.90
2018-09-10T20:24:05.427Z,99.90
2018-09-10T20:26:32.940Z,99.90
2018-09-10T20:29:00.520Z,99.90
2018-09-10T20:34:00.792Z,99.90
2018-09-10T20:36:28.375Z,99.90
2018-09-10T20:39:07.707Z,99.90
2018-09-10T20:41:35.256Z,99.90
2018-09-10T20:44:02.763Z,99.90
2018-09-10T20:46:30.280Z,99.90
2018-09-10T20:49:29.088Z,99.90
2018-09-10T20:51:56.594Z,99.90
2018-09-10T20:56:51.376Z,99.90
2018-09-10T20:59:27.159Z,99.90
2018-09-10T21:01:54.702Z,99.90
2018-09-10T21:04:22.643Z,99.90
2018-09-10T21:06:50.164Z,99.90
2018-09-10T21:09:17.728Z,99.90
2018-09-10T21:11:45.291Z,99.90
2018-09-10T21:14:12.939Z,99.90
2018-09-10T21:16:40.496Z,99.90
2018-09-10T21:19:09.255Z,99.90
2018-09-10T21:21:36.920Z,99.90
2018-09-10T21:24:04.585Z,99.90
2018-09-10T21:26:32.344Z,99.90
2018-09-10T21:29:02.415Z,99.90
2018-09-10T21:31:30.133Z,99.90
2018-09-10T21:33:57.847Z,99.90
2018-09-10T21:36:25.556Z,99.90
2018-09-10T21:39:01.162Z,99.90
2018-09-10T21:41:28.843Z,99.90
2018-09-10T21:43:56.515Z,99.90
2018-09-10T21:46:24.231Z,99.90
2018-09-10T21:48:52.571Z,99.90
2018-09-10T21:51:20.240Z,99.90
2018-09-10T21:53:48.178Z,99.90
2018-09-10T21:56:15.643Z,99.90
2018-09-10T21:58:44.365Z,99.90
2018-09-10T22:01:12.068Z,99.90
2018-09-10T22:03:39.800Z,99.90
2018-09-10T22:06:07.488Z,99.90
2018-09-10T22:08:52.061Z,99.90
2018-09-10T22:11:19.707Z,99.90
2018-09-10T22:13:47.403Z,99.90
2018-09-10T22:16:15.087Z,99.90
2018-09-10T22:18:49.960Z,99.90
2018-09-10T22:21:17.716Z,99.90
2018-09-10T22:23:45.423Z,99.90
2018-09-10T22:26:13.079Z,99.90
2018-09-10T22:28:41.799Z,99.90
2018-09-10T22:31:09.512Z,99.90
2018-09-10T22:33:37.207Z,99.90
2018-09-10T22:36:04.959Z,99.90
2018-09-10T22:38:46.713Z,99.90
2018-09-10T22:41:14.421Z,99.90
2018-09-10T22:43:42.074Z,99.90
2018-09-10T22:46:09.827Z,99.90
2018-09-10T22:48:50.675Z,99.90
2018-09-10T22:51:18.831Z,99.90
2018-09-10T22:56:13.899Z,99.90
2018-09-10T22:58:42.721Z,99.90
2018-09-10T23:01:10.449Z,99.90
2018-09-10T23:03:38.096Z,99.90
2018-09-10T23:06:05.764Z,99.90
2018-09-10T23:08:48.269Z,99.90
2018-09-10T23:11:16.000Z,99.90
2018-09-10T23:13:43.735Z,99.90
2018-09-10T23:16:11.472Z,99.90
2018-09-10T23:18:43.540Z,99.90
2018-09-10T23:21:11.163Z,99.90
2018-09-10T23:23:38.783Z,99.90
2018-09-10T23:26:06.408Z,99.90
2018-09-10T23:28:55.699Z,99.90
2018-09-10T23:31:23.215Z,99.90
2018-09-10T23:33:50.751Z,99.90
2018-09-10T23:36:18.271Z,99.90
2018-09-10T23:38:53.056Z,99.90
2018-09-10T23:41:20.623Z,99.90
2018-09-10T23:43:48.147Z,99.90
2018-09-10T23:46:15.690Z,99.90
2018-09-10T23:48:43.283Z,99.90
2018-09-10T23:51:10.856Z,99.90
2018-09-10T23:53:38.380Z,99.90
2018-09-10T23:56:06.036Z,99.90
2018-09-10T23:58:33.772Z,99.90
